KCYS

Cheyenne Regional / Jerry Olson Field Airport

Cheyenne, Wyoming, USA
METAR KCYS 201953Z 14010KT 2SM HZ CLR 20/08 A3026 RMK AO2 SFC VIS 3 SLP184 T02000078
Observed Flight Rules
Aug-20 @ 19:53 UTC (35 minutes ago) Instrument Flight Rules
Wind Visibility Clouds Conditions
140° at 10 knots 2 miles
  • Clear skies
  • Haze
Temperatures Readings
Current 20°C / 68°F
Dewpoint 8°C / 46°F
Humidity 46%
Altimeter 30.26" Hg
Pressure 1018.4 hPa
Elevation 1868
METAR KCYS 201953Z 14010KT 2SM HZ CLR 20/08 A3026 RMK AO2 SFC VIS 3 SLP184 T02000078
Observed Flight Rules
Aug-20 @ 19:53 UTC
(35 minutes ago)
IFR
Wind Visibility
140° at 10 knots 2 miles
Clouds
  • Clear skies
Conditions
  • Haze
Temperature Dewpoint
20°C / 68°F 8°C / 46°F
Humidity Altimeter Pressure
46% 30.26" Hg 1018.4 hPa